sensor_id;sensor_type;location;lat;lon;timestamp;P1;durP1;ratioP1;P2;durP2;ratioP2
8317;SDS011;4196;48.926;8.964;2024-03-07T00:01:59;52.67;;;20.87;;
8317;SDS011;4196;48.926;8.964;2024-03-07T00:04:46;51.03;;;20.03;;
8317;SDS011;4196;48.926;8.964;2024-03-07T00:07:33;48.90;;;20.77;;
8317;SDS011;4196;48.926;8.964;2024-03-07T00:10:19;46.10;;;20.30;;
8317;SDS011;4196;48.926;8.964;2024-03-07T00:13:07;53.37;;;21.87;;
8317;SDS011;4196;48.926;8.964;2024-03-07T00:15:53;49.57;;;21.37;;
8317;SDS011;4196;48.926;8.964;2024-03-07T00:18:40;46.93;;;21.17;;
8317;SDS011;4196;48.926;8.964;2024-03-07T00:21:27;54.93;;;21.30;;
8317;SDS011;4196;48.926;8.964;2024-03-07T00:24:13;56.77;;;24.13;;
8317;SDS011;4196;48.926;8.964;2024-03-07T00:27:02;54.33;;;22.47;;
8317;SDS011;4196;48.926;8.964;2024-03-07T00:29:49;71.37;;;26.70;;
8317;SDS011;4196;48.926;8.964;2024-03-07T00:32:42;59.40;;;22.77;;
8317;SDS011;4196;48.926;8.964;2024-03-07T00:35:29;57.33;;;22.00;;
8317;SDS011;4196;48.926;8.964;2024-03-07T00:38:15;59.37;;;24.60;;
8317;SDS011;4196;48.926;8.964;2024-03-07T00:41:02;61.90;;;23.50;;
8317;SDS011;4196;48.926;8.964;2024-03-07T00:43:48;57.43;;;23.83;;
8317;SDS011;4196;48.926;8.964;2024-03-07T00:46:36;55.43;;;22.87;;
8317;SDS011;4196;48.926;8.964;2024-03-07T00:49:23;55.93;;;22.80;;
8317;SDS011;4196;48.926;8.964;2024-03-07T00:52:09;62.80;;;22.77;;
8317;SDS011;4196;48.926;8.964;2024-03-07T00:54:56;62.17;;;23.30;;
8317;SDS011;4196;48.926;8.964;2024-03-07T00:57:42;61.07;;;24.23;;
8317;SDS011;4196;48.926;8.964;2024-03-07T01:00:28;64.57;;;24.63;;
8317;SDS011;4196;48.926;8.964;2024-03-07T01:03:15;55.77;;;25.50;;
8317;SDS011;4196;48.926;8.964;2024-03-07T01:06:03;55.37;;;23.97;;
8317;SDS011;4196;48.926;8.964;2024-03-07T01:08:50;52.30;;;21.40;;
8317;SDS011;4196;48.926;8.964;2024-03-07T01:11:37;52.97;;;22.03;;
8317;SDS011;4196;48.926;8.964;2024-03-07T01:14:24;47.63;;;20.07;;
8317;SDS011;4196;48.926;8.964;2024-03-07T01:17:10;55.90;;;22.37;;
8317;SDS011;4196;48.926;8.964;2024-03-07T01:19:58;49.20;;;21.20;;
8317;SDS011;4196;48.926;8.964;2024-03-07T01:22:44;57.77;;;23.07;;
8317;SDS011;4196;48.926;8.964;2024-03-07T01:25:31;58.93;;;21.53;;
8317;SDS011;4196;48.926;8.964;2024-03-07T01:28:20;57.00;;;22.97;;
8317;SDS011;4196;48.926;8.964;2024-03-07T01:31:08;60.97;;;23.83;;
8317;SDS011;4196;48.926;8.964;2024-03-07T01:33:56;59.13;;;25.47;;
8317;SDS011;4196;48.926;8.964;2024-03-07T01:36:43;48.53;;;21.63;;
8317;SDS011;4196;48.926;8.964;2024-03-07T01:39:29;50.73;;;21.10;;
8317;SDS011;4196;48.926;8.964;2024-03-07T01:42:15;53.47;;;21.97;;
8317;SDS011;4196;48.926;8.964;2024-03-07T01:45:02;52.73;;;23.20;;
8317;SDS011;4196;48.926;8.964;2024-03-07T01:47:49;55.93;;;22.10;;
8317;SDS011;4196;48.926;8.964;2024-03-07T01:50:36;60.63;;;26.60;;
8317;SDS011;4196;48.926;8.964;2024-03-07T01:53:26;64.93;;;23.20;;
8317;SDS011;4196;48.926;8.964;2024-03-07T01:56:13;66.50;;;22.77;;
8317;SDS011;4196;48.926;8.964;2024-03-07T01:59:00;58.73;;;22.20;;
8317;SDS011;4196;48.926;8.964;2024-03-07T02:01:48;53.03;;;20.70;;
8317;SDS011;4196;48.926;8.964;2024-03-07T02:04:35;58.70;;;23.23;;
8317;SDS011;4196;48.926;8.964;2024-03-07T02:07:22;54.63;;;22.40;;
8317;SDS011;4196;48.926;8.964;2024-03-07T02:10:08;56.13;;;21.47;;
8317;SDS011;4196;48.926;8.964;2024-03-07T02:12:55;46.43;;;20.20;;
8317;SDS011;4196;48.926;8.964;2024-03-07T02:15:42;56.20;;;21.70;;
8317;SDS011;4196;48.926;8.964;2024-03-07T02:18:31;56.67;;;21.33;;
8317;SDS011;4196;48.926;8.964;2024-03-07T02:21:19;56.83;;;21.27;;
8317;SDS011;4196;48.926;8.964;2024-03-07T02:24:06;61.00;;;22.30;;
8317;SDS011;4196;48.926;8.964;2024-03-07T02:26:52;53.00;;;21.93;;
8317;SDS011;4196;48.926;8.964;2024-03-07T02:29:38;60.70;;;22.50;;
8317;SDS011;4196;48.926;8.964;2024-03-07T02:32:25;58.57;;;22.83;;
8317;SDS011;4196;48.926;8.964;2024-03-07T02:35:12;59.60;;;21.90;;
8317;SDS011;4196;48.926;8.964;2024-03-07T02:38:02;53.30;;;22.73;;
8317;SDS011;4196;48.926;8.964;2024-03-07T02:40:50;58.93;;;22.67;;
8317;SDS011;4196;48.926;8.964;2024-03-07T02:43:36;55.57;;;21.60;;
8317;SDS011;4196;48.926;8.964;2024-03-07T02:46:24;50.27;;;20.60;;
8317;SDS011;4196;48.926;8.964;2024-03-07T02:49:10;43.90;;;20.07;;
8317;SDS011;4196;48.926;8.964;2024-03-07T02:51:56;40.27;;;17.67;;
8317;SDS011;4196;48.926;8.964;2024-03-07T02:54:43;38.07;;;17.57;;
8317;SDS011;4196;48.926;8.964;2024-03-07T02:57:30;32.07;;;15.57;;
8317;SDS011;4196;48.926;8.964;2024-03-07T03:00:17;35.73;;;14.47;;
8317;SDS011;4196;48.926;8.964;2024-03-07T03:03:07;36.60;;;16.80;;
8317;SDS011;4196;48.926;8.964;2024-03-07T03:10:26;47.07;;;18.40;;
8317;SDS011;4196;48.926;8.964;2024-03-07T03:13:16;48.97;;;19.00;;
8317;SDS011;4196;48.926;8.964;2024-03-07T03:16:03;47.27;;;21.43;;
8317;SDS011;4196;48.926;8.964;2024-03-07T03:18:51;44.30;;;17.83;;
8317;SDS011;4196;48.926;8.964;2024-03-07T03:21:37;46.90;;;19.63;;
8317;SDS011;4196;48.926;8.964;2024-03-07T03:24:24;44.17;;;17.63;;
8317;SDS011;4196;48.926;8.964;2024-03-07T03:27:11;37.57;;;17.33;;
8317;SDS011;4196;48.926;8.964;2024-03-07T03:29:58;47.00;;;17.20;;
8317;SDS011;4196;48.926;8.964;2024-03-07T03:32:49;46.07;;;17.83;;
8317;SDS011;4196;48.926;8.964;2024-03-07T03:35:37;39.93;;;15.87;;
8317;SDS011;4196;48.926;8.964;2024-03-07T03:38:24;40.10;;;16.60;;
8317;SDS011;4196;48.926;8.964;2024-03-07T03:41:15;41.60;;;17.47;;
8317;SDS011;4196;48.926;8.964;2024-03-07T03:44:02;40.23;;;18.40;;
8317;SDS011;4196;48.926;8.964;2024-03-07T03:46:49;39.50;;;18.90;;
8317;SDS011;4196;48.926;8.964;2024-03-07T03:49:36;42.77;;;18.10;;
8317;SDS011;4196;48.926;8.964;2024-03-07T03:52:23;39.13;;;17.53;;
8317;SDS011;4196;48.926;8.964;2024-03-07T03:55:09;46.57;;;19.03;;
8317;SDS011;4196;48.926;8.964;2024-03-07T03:57:56;37.23;;;18.83;;
8317;SDS011;4196;48.926;8.964;2024-03-07T04:00:42;39.23;;;17.20;;
8317;SDS011;4196;48.926;8.964;2024-03-07T04:03:29;46.90;;;18.07;;
8317;SDS011;4196;48.926;8.964;2024-03-07T04:06:16;46.37;;;18.30;;
8317;SDS011;4196;48.926;8.964;2024-03-07T04:09:03;52.60;;;19.80;;
8317;SDS011;4196;48.926;8.964;2024-03-07T04:11:50;55.73;;;20.57;;
8317;SDS011;4196;48.926;8.964;2024-03-07T04:14:40;51.67;;;20.03;;
8317;SDS011;4196;48.926;8.964;2024-03-07T04:17:30;42.13;;;18.73;;
8317;SDS011;4196;48.926;8.964;2024-03-07T04:20:17;46.83;;;19.97;;
8317;SDS011;4196;48.926;8.964;2024-03-07T04:23:06;51.60;;;22.33;;
8317;SDS011;4196;48.926;8.964;2024-03-07T04:25:57;56.00;;;20.73;;
8317;SDS011;4196;48.926;8.964;2024-03-07T04:28:44;52.40;;;20.53;;
8317;SDS011;4196;48.926;8.964;2024-03-07T04:31:31;44.37;;;20.50;;
8317;SDS011;4196;48.926;8.964;2024-03-07T04:34:17;52.27;;;22.03;;
8317;SDS011;4196;48.926;8.964;2024-03-07T04:37:04;50.27;;;19.40;;
8317;SDS011;4196;48.926;8.964;2024-03-07T04:39:51;53.80;;;19.93;;
8317;SDS011;4196;48.926;8.964;2024-03-07T04:42:37;45.80;;;19.60;;
8317;SDS011;4196;48.926;8.964;2024-03-07T04:45:24;62.90;;;22.37;;
8317;SDS011;4196;48.926;8.964;2024-03-07T04:48:10;52.53;;;22.20;;
8317;SDS011;4196;48.926;8.964;2024-03-07T04:50:57;55.27;;;21.47;;
8317;SDS011;4196;48.926;8.964;2024-03-07T04:53:44;50.30;;;20.57;;
8317;SDS011;4196;48.926;8.964;2024-03-07T04:56:31;49.90;;;20.43;;
8317;SDS011;4196;48.926;8.964;2024-03-07T04:59:21;44.90;;;18.73;;
8317;SDS011;4196;48.926;8.964;2024-03-07T05:02:08;39.30;;;18.40;;
8317;SDS011;4196;48.926;8.964;2024-03-07T05:04:54;41.80;;;19.43;;
8317;SDS011;4196;48.926;8.964;2024-03-07T05:07:41;51.13;;;21.70;;
8317;SDS011;4196;48.926;8.964;2024-03-07T05:10:28;52.93;;;19.83;;
8317;SDS011;4196;48.926;8.964;2024-03-07T05:13:15;47.63;;;21.43;;
8317;SDS011;4196;48.926;8.964;2024-03-07T05:16:02;49.50;;;20.87;;
8317;SDS011;4196;48.926;8.964;2024-03-07T05:18:49;51.10;;;20.77;;
8317;SDS011;4196;48.926;8.964;2024-03-07T05:21:36;54.07;;;22.00;;
8317;SDS011;4196;48.926;8.964;2024-03-07T05:24:29;54.17;;;19.97;;
8317;SDS011;4196;48.926;8.964;2024-03-07T05:27:15;56.13;;;20.67;;
8317;SDS011;4196;48.926;8.964;2024-03-07T05:30:02;41.63;;;17.57;;
8317;SDS011;4196;48.926;8.964;2024-03-07T05:32:56;40.20;;;17.80;;
8317;SDS011;4196;48.926;8.964;2024-03-07T05:35:42;38.93;;;19.73;;
8317;SDS011;4196;48.926;8.964;2024-03-07T05:38:30;42.07;;;18.37;;
8317;SDS011;4196;48.926;8.964;2024-03-07T05:41:16;37.30;;;16.80;;
8317;SDS011;4196;48.926;8.964;2024-03-07T05:44:03;39.53;;;17.37;;
8317;SDS011;4196;48.926;8.964;2024-03-07T05:46:54;44.53;;;19.57;;
8317;SDS011;4196;48.926;8.964;2024-03-07T05:49:41;44.40;;;18.60;;
8317;SDS011;4196;48.926;8.964;2024-03-07T05:52:27;38.17;;;18.57;;
8317;SDS011;4196;48.926;8.964;2024-03-07T05:55:13;44.50;;;19.57;;
8317;SDS011;4196;48.926;8.964;2024-03-07T05:58:02;50.03;;;20.47;;
8317;SDS011;4196;48.926;8.964;2024-03-07T06:00:48;46.07;;;20.37;;
8317;SDS011;4196;48.926;8.964;2024-03-07T06:03:39;48.07;;;22.57;;
8317;SDS011;4196;48.926;8.964;2024-03-07T06:06:25;58.27;;;22.73;;
8317;SDS011;4196;48.926;8.964;2024-03-07T06:09:13;56.30;;;23.77;;
8317;SDS011;4196;48.926;8.964;2024-03-07T06:11:59;63.17;;;23.47;;
8317;SDS011;4196;48.926;8.964;2024-03-07T06:14:55;51.23;;;20.00;;
8317;SDS011;4196;48.926;8.964;2024-03-07T06:17:41;52.90;;;23.53;;
8317;SDS011;4196;48.926;8.964;2024-03-07T06:20:31;48.80;;;21.27;;
8317;SDS011;4196;48.926;8.964;2024-03-07T06:23:18;50.33;;;20.57;;
8317;SDS011;4196;48.926;8.964;2024-03-07T06:26:04;53.47;;;20.33;;
8317;SDS011;4196;48.926;8.964;2024-03-07T06:28:59;47.60;;;19.97;;
8317;SDS011;4196;48.926;8.964;2024-03-07T06:31:45;47.37;;;21.07;;
8317;SDS011;4196;48.926;8.964;2024-03-07T06:34:32;64.77;;;24.93;;
8317;SDS011;4196;48.926;8.964;2024-03-07T06:37:19;56.13;;;23.37;;
8317;SDS011;4196;48.926;8.964;2024-03-07T06:40:06;61.77;;;22.60;;
8317;SDS011;4196;48.926;8.964;2024-03-07T06:42:55;56.33;;;22.27;;
8317;SDS011;4196;48.926;8.964;2024-03-07T06:45:42;57.20;;;23.60;;
8317;SDS011;4196;48.926;8.964;2024-03-07T06:48:29;59.37;;;23.03;;
8317;SDS011;4196;48.926;8.964;2024-03-07T06:51:15;62.10;;;27.17;;
8317;SDS011;4196;48.926;8.964;2024-03-07T06:54:04;57.83;;;22.27;;
8317;SDS011;4196;48.926;8.964;2024-03-07T06:56:51;65.10;;;23.90;;
8317;SDS011;4196;48.926;8.964;2024-03-07T06:59:38;69.13;;;28.33;;
8317;SDS011;4196;48.926;8.964;2024-03-07T07:02:24;77.23;;;29.87;;
8317;SDS011;4196;48.926;8.964;2024-03-07T07:05:13;88.40;;;31.37;;
8317;SDS011;4196;48.926;8.964;2024-03-07T07:08:01;69.67;;;28.90;;
8317;SDS011;4196;48.926;8.964;2024-03-07T07:10:47;70.57;;;30.30;;
8317;SDS011;4196;48.926;8.964;2024-03-07T07:13:34;76.00;;;28.90;;
8317;SDS011;4196;48.926;8.964;2024-03-07T07:16:21;71.97;;;30.30;;
8317;SDS011;4196;48.926;8.964;2024-03-07T07:19:07;66.73;;;28.27;;
8317;SDS011;4196;48.926;8.964;2024-03-07T07:21:54;70.37;;;29.10;;
8317;SDS011;4196;48.926;8.964;2024-03-07T07:24:40;73.47;;;29.67;;
8317;SDS011;4196;48.926;8.964;2024-03-07T07:27:27;74.63;;;28.40;;
8317;SDS011;4196;48.926;8.964;2024-03-07T07:30:14;77.60;;;29.50;;
8317;SDS011;4196;48.926;8.964;2024-03-07T07:33:02;67.33;;;26.77;;
8317;SDS011;4196;48.926;8.964;2024-03-07T07:35:49;103.77;;;31.93;;
8317;SDS011;4196;48.926;8.964;2024-03-07T07:38:36;70.90;;;26.53;;
8317;SDS011;4196;48.926;8.964;2024-03-07T07:41:23;72.87;;;29.13;;
8317;SDS011;4196;48.926;8.964;2024-03-07T07:44:09;71.57;;;28.83;;
8317;SDS011;4196;48.926;8.964;2024-03-07T07:46:56;74.40;;;31.07;;
8317;SDS011;4196;48.926;8.964;2024-03-07T07:49:43;64.13;;;27.63;;
8317;SDS011;4196;48.926;8.964;2024-03-07T07:52:30;65.10;;;27.07;;
8317;SDS011;4196;48.926;8.964;2024-03-07T07:55:28;74.83;;;30.97;;
8317;SDS011;4196;48.926;8.964;2024-03-07T07:58:15;72.57;;;28.70;;
8317;SDS011;4196;48.926;8.964;2024-03-07T08:01:02;63.27;;;25.97;;
8317;SDS011;4196;48.926;8.964;2024-03-07T08:03:49;72.23;;;27.47;;
8317;SDS011;4196;48.926;8.964;2024-03-07T08:06:36;70.73;;;28.67;;
8317;SDS011;4196;48.926;8.964;2024-03-07T08:09:22;56.17;;;26.00;;
8317;SDS011;4196;48.926;8.964;2024-03-07T08:12:09;58.90;;;26.63;;
8317;SDS011;4196;48.926;8.964;2024-03-07T08:14:56;53.60;;;25.40;;
8317;SDS011;4196;48.926;8.964;2024-03-07T08:17:46;53.20;;;24.07;;
8317;SDS011;4196;48.926;8.964;2024-03-07T08:20:34;42.63;;;20.27;;
8317;SDS011;4196;48.926;8.964;2024-03-07T08:23:20;36.40;;;16.33;;
8317;SDS011;4196;48.926;8.964;2024-03-07T08:26:09;25.87;;;13.97;;
8317;SDS011;4196;48.926;8.964;2024-03-07T08:28:56;27.10;;;13.43;;
8317;SDS011;4196;48.926;8.964;2024-03-07T08:31:42;27.80;;;13.00;;
8317;SDS011;4196;48.926;8.964;2024-03-07T08:34:30;27.67;;;13.87;;
8317;SDS011;4196;48.926;8.964;2024-03-07T08:37:17;30.13;;;15.50;;
8317;SDS011;4196;48.926;8.964;2024-03-07T08:40:04;25.27;;;12.73;;
8317;SDS011;4196;48.926;8.964;2024-03-07T08:42:53;21.30;;;10.57;;
8317;SDS011;4196;48.926;8.964;2024-03-07T08:45:43;29.50;;;12.33;;
8317;SDS011;4196;48.926;8.964;2024-03-07T08:48:29;26.40;;;12.70;;
8317;SDS011;4196;48.926;8.964;2024-03-07T08:51:16;25.73;;;12.97;;
8317;SDS011;4196;48.926;8.964;2024-03-07T08:54:03;25.20;;;13.10;;
8317;SDS011;4196;48.926;8.964;2024-03-07T08:56:51;24.20;;;11.63;;
8317;SDS011;4196;48.926;8.964;2024-03-07T08:59:37;23.87;;;11.23;;
8317;SDS011;4196;48.926;8.964;2024-03-07T09:02:24;22.63;;;12.00;;
8317;SDS011;4196;48.926;8.964;2024-03-07T09:05:11;25.17;;;11.67;;
8317;SDS011;4196;48.926;8.964;2024-03-07T09:07:57;23.33;;;11.73;;
8317;SDS011;4196;48.926;8.964;2024-03-07T09:10:44;22.87;;;10.73;;
8317;SDS011;4196;48.926;8.964;2024-03-07T09:13:31;23.53;;;12.47;;
8317;SDS011;4196;48.926;8.964;2024-03-07T09:16:18;22.93;;;10.80;;
8317;SDS011;4196;48.926;8.964;2024-03-07T09:19:06;17.67;;;10.87;;
8317;SDS011;4196;48.926;8.964;2024-03-07T09:21:53;23.13;;;10.83;;
8317;SDS011;4196;48.926;8.964;2024-03-07T09:24:39;20.13;;;10.00;;
8317;SDS011;4196;48.926;8.964;2024-03-07T09:27:26;20.97;;;10.60;;
8317;SDS011;4196;48.926;8.964;2024-03-07T09:30:13;18.53;;;10.83;;
8317;SDS011;4196;48.926;8.964;2024-03-07T09:33:01;23.37;;;11.90;;
8317;SDS011;4196;48.926;8.964;2024-03-07T09:35:48;21.33;;;11.00;;
8317;SDS011;4196;48.926;8.964;2024-03-07T09:38:34;21.80;;;12.30;;
8317;SDS011;4196;48.926;8.964;2024-03-07T09:41:22;23.57;;;11.57;;
8317;SDS011;4196;48.926;8.964;2024-03-07T09:44:15;21.37;;;11.73;;
8317;SDS011;4196;48.926;8.964;2024-03-07T09:47:08;21.97;;;11.23;;
8317;SDS011;4196;48.926;8.964;2024-03-07T09:49:57;21.60;;;11.03;;
8317;SDS011;4196;48.926;8.964;2024-03-07T09:52:45;26.13;;;12.37;;
8317;SDS011;4196;48.926;8.964;2024-03-07T09:55:33;21.80;;;10.97;;
8317;SDS011;4196;48.926;8.964;2024-03-07T09:58:19;22.17;;;10.67;;
8317;SDS011;4196;48.926;8.964;2024-03-07T10:01:06;18.67;;;11.27;;
8317;SDS011;4196;48.926;8.964;2024-03-07T10:04:00;24.30;;;12.53;;
8317;SDS011;4196;48.926;8.964;2024-03-07T10:06:57;21.93;;;10.87;;
8317;SDS011;4196;48.926;8.964;2024-03-07T10:09:44;21.07;;;9.80;;
8317;SDS011;4196;48.926;8.964;2024-03-07T10:12:31;23.67;;;11.20;;
8317;SDS011;4196;48.926;8.964;2024-03-07T10:15:18;24.37;;;12.13;;
8317;SDS011;4196;48.926;8.964;2024-03-07T10:18:08;19.80;;;11.17;;
8317;SDS011;4196;48.926;8.964;2024-03-07T10:21:00;22.57;;;12.17;;
8317;SDS011;4196;48.926;8.964;2024-03-07T10:23:50;23.67;;;11.67;;
8317;SDS011;4196;48.926;8.964;2024-03-07T10:26:39;20.37;;;11.40;;
8317;SDS011;4196;48.926;8.964;2024-03-07T10:29:26;21.83;;;11.63;;
8317;SDS011;4196;48.926;8.964;2024-03-07T10:32:13;21.30;;;11.47;;
8317;SDS011;4196;48.926;8.964;2024-03-07T10:35:00;21.50;;;11.90;;
8317;SDS011;4196;48.926;8.964;2024-03-07T10:37:46;25.00;;;13.17;;
8317;SDS011;4196;48.926;8.964;2024-03-07T10:40:34;29.00;;;13.73;;
8317;SDS011;4196;48.926;8.964;2024-03-07T10:43:27;24.13;;;12.40;;
8317;SDS011;4196;48.926;8.964;2024-03-07T10:46:15;24.40;;;12.30;;
8317;SDS011;4196;48.926;8.964;2024-03-07T10:49:04;25.50;;;13.47;;
8317;SDS011;4196;48.926;8.964;2024-03-07T10:52:10;30.10;;;13.77;;
8317;SDS011;4196;48.926;8.964;2024-03-07T10:55:17;24.03;;;12.30;;
8317;SDS011;4196;48.926;8.964;2024-03-07T10:58:26;24.43;;;12.47;;
8317;SDS011;4196;48.926;8.964;2024-03-07T11:01:19;19.70;;;10.53;;
8317;SDS011;4196;48.926;8.964;2024-03-07T11:04:06;29.73;;;13.27;;
8317;SDS011;4196;48.926;8.964;2024-03-07T11:06:53;22.93;;;13.13;;
8317;SDS011;4196;48.926;8.964;2024-03-07T11:09:40;18.03;;;11.30;;
8317;SDS011;4196;48.926;8.964;2024-03-07T11:12:29;23.73;;;12.03;;
8317;SDS011;4196;48.926;8.964;2024-03-07T11:15:16;28.30;;;13.87;;
8317;SDS011;4196;48.926;8.964;2024-03-07T11:18:06;28.83;;;13.07;;
8317;SDS011;4196;48.926;8.964;2024-03-07T11:20:54;25.47;;;13.23;;
8317;SDS011;4196;48.926;8.964;2024-03-07T11:23:46;26.60;;;12.47;;
8317;SDS011;4196;48.926;8.964;2024-03-07T11:26:33;24.97;;;11.87;;
8317;SDS011;4196;48.926;8.964;2024-03-07T11:32:40;26.80;;;13.00;;
8317;SDS011;4196;48.926;8.964;2024-03-07T11:35:33;21.33;;;11.87;;
8317;SDS011;4196;48.926;8.964;2024-03-07T11:38:30;23.33;;;12.60;;
8317;SDS011;4196;48.926;8.964;2024-03-07T11:41:20;23.60;;;12.47;;
8317;SDS011;4196;48.926;8.964;2024-03-07T11:44:07;25.70;;;13.73;;
8317;SDS011;4196;48.926;8.964;2024-03-07T11:46:53;25.23;;;12.53;;
8317;SDS011;4196;48.926;8.964;2024-03-07T11:49:40;22.47;;;12.47;;
8317;SDS011;4196;48.926;8.964;2024-03-07T11:52:27;23.50;;;12.53;;
8317;SDS011;4196;48.926;8.964;2024-03-07T11:55:14;24.83;;;13.37;;
8317;SDS011;4196;48.926;8.964;2024-03-07T11:58:02;25.93;;;13.23;;
8317;SDS011;4196;48.926;8.964;2024-03-07T12:00:49;24.10;;;13.20;;
8317;SDS011;4196;48.926;8.964;2024-03-07T12:03:38;25.47;;;12.40;;
8317;SDS011;4196;48.926;8.964;2024-03-07T12:06:25;23.33;;;11.77;;
8317;SDS011;4196;48.926;8.964;2024-03-07T12:09:11;27.53;;;13.00;;
8317;SDS011;4196;48.926;8.964;2024-03-07T12:12:09;26.87;;;13.67;;
8317;SDS011;4196;48.926;8.964;2024-03-07T12:14:56;25.93;;;12.57;;
8317;SDS011;4196;48.926;8.964;2024-03-07T12:17:43;26.50;;;12.23;;
8317;SDS011;4196;48.926;8.964;2024-03-07T12:20:30;27.10;;;12.50;;
8317;SDS011;4196;48.926;8.964;2024-03-07T12:23:19;25.90;;;13.10;;
8317;SDS011;4196;48.926;8.964;2024-03-07T12:26:09;21.40;;;10.77;;
8317;SDS011;4196;48.926;8.964;2024-03-07T12:29:06;26.40;;;13.57;;
8317;SDS011;4196;48.926;8.964;2024-03-07T12:31:59;30.13;;;13.40;;
8317;SDS011;4196;48.926;8.964;2024-03-07T12:34:46;23.07;;;12.37;;
8317;SDS011;4196;48.926;8.964;2024-03-07T12:37:35;23.03;;;12.33;;
8317;SDS011;4196;48.926;8.964;2024-03-07T12:40:22;20.70;;;11.20;;
8317;SDS011;4196;48.926;8.964;2024-03-07T12:43:13;20.23;;;10.90;;
8317;SDS011;4196;48.926;8.964;2024-03-07T12:46:04;21.70;;;11.93;;
8317;SDS011;4196;48.926;8.964;2024-03-07T12:48:52;21.13;;;11.17;;
8317;SDS011;4196;48.926;8.964;2024-03-07T12:51:38;22.27;;;12.10;;
8317;SDS011;4196;48.926;8.964;2024-03-07T12:54:27;23.53;;;12.67;;
8317;SDS011;4196;48.926;8.964;2024-03-07T12:57:13;21.47;;;12.50;;
8317;SDS011;4196;48.926;8.964;2024-03-07T13:00:00;22.47;;;11.67;;
8317;SDS011;4196;48.926;8.964;2024-03-07T13:02:47;23.10;;;11.93;;
8317;SDS011;4196;48.926;8.964;2024-03-07T13:05:36;22.53;;;12.77;;
8317;SDS011;4196;48.926;8.964;2024-03-07T13:08:26;20.93;;;12.00;;
8317;SDS011;4196;48.926;8.964;2024-03-07T13:11:15;23.47;;;11.37;;
8317;SDS011;4196;48.926;8.964;2024-03-07T13:14:02;19.67;;;10.73;;
8317;SDS011;4196;48.926;8.964;2024-03-07T13:16:48;23.40;;;12.27;;
8317;SDS011;4196;48.926;8.964;2024-03-07T13:19:36;24.70;;;12.07;;
8317;SDS011;4196;48.926;8.964;2024-03-07T13:22:24;22.80;;;12.63;;
8317;SDS011;4196;48.926;8.964;2024-03-07T13:25:11;22.53;;;12.17;;
8317;SDS011;4196;48.926;8.964;2024-03-07T13:28:07;23.20;;;12.50;;
8317;SDS011;4196;48.926;8.964;2024-03-07T13:30:59;22.63;;;12.47;;
8317;SDS011;4196;48.926;8.964;2024-03-07T13:33:46;23.67;;;11.70;;
8317;SDS011;4196;48.926;8.964;2024-03-07T13:36:32;24.90;;;12.37;;
8317;SDS011;4196;48.926;8.964;2024-03-07T13:39:19;21.67;;;10.90;;
8317;SDS011;4196;48.926;8.964;2024-03-07T13:42:05;20.73;;;11.60;;
8317;SDS011;4196;48.926;8.964;2024-03-07T13:44:52;25.77;;;12.17;;
8317;SDS011;4196;48.926;8.964;2024-03-07T13:47:38;23.53;;;13.50;;
8317;SDS011;4196;48.926;8.964;2024-03-07T13:50:25;19.43;;;11.10;;
8317;SDS011;4196;48.926;8.964;2024-03-07T13:53:36;19.67;;;10.60;;
8317;SDS011;4196;48.926;8.964;2024-03-07T13:56:42;22.63;;;11.07;;
8317;SDS011;4196;48.926;8.964;2024-03-07T13:59:49;21.77;;;11.20;;
8317;SDS011;4196;48.926;8.964;2024-03-07T14:06:03;21.83;;;11.63;;
8317;SDS011;4196;48.926;8.964;2024-03-07T14:09:14;22.00;;;12.03;;
8317;SDS011;4196;48.926;8.964;2024-03-07T14:12:32;20.20;;;10.73;;
8317;SDS011;4196;48.926;8.964;2024-03-07T14:22:17;20.53;;;11.67;;
8317;SDS011;4196;48.926;8.964;2024-03-07T14:25:24;23.90;;;13.37;;
8317;SDS011;4196;48.926;8.964;2024-03-07T14:28:40;20.20;;;10.60;;
8317;SDS011;4196;48.926;8.964;2024-03-07T14:31:37;18.07;;;10.70;;
8317;SDS011;4196;48.926;8.964;2024-03-07T14:40:52;24.17;;;11.83;;
8317;SDS011;4196;48.926;8.964;2024-03-07T14:43:39;23.40;;;12.73;;
8317;SDS011;4196;48.926;8.964;2024-03-07T14:46:27;20.13;;;11.53;;
8317;SDS011;4196;48.926;8.964;2024-03-07T14:49:14;20.87;;;12.10;;
8317;SDS011;4196;48.926;8.964;2024-03-07T14:52:02;21.53;;;12.47;;
8317;SDS011;4196;48.926;8.964;2024-03-07T14:54:49;22.80;;;12.17;;
8317;SDS011;4196;48.926;8.964;2024-03-07T14:57:35;24.17;;;12.90;;
8317;SDS011;4196;48.926;8.964;2024-03-07T15:00:22;20.80;;;11.63;;
8317;SDS011;4196;48.926;8.964;2024-03-07T15:03:22;23.73;;;12.20;;
8317;SDS011;4196;48.926;8.964;2024-03-07T15:06:10;25.97;;;13.57;;
8317;SDS011;4196;48.926;8.964;2024-03-07T15:09:01;22.57;;;11.67;;
8317;SDS011;4196;48.926;8.964;2024-03-07T15:11:49;27.87;;;13.10;;
8317;SDS011;4196;48.926;8.964;2024-03-07T15:14:35;25.57;;;13.27;;
8317;SDS011;4196;48.926;8.964;2024-03-07T15:17:25;23.93;;;13.60;;
8317;SDS011;4196;48.926;8.964;2024-03-07T15:20:12;25.17;;;11.57;;
8317;SDS011;4196;48.926;8.964;2024-03-07T15:23:08;26.10;;;14.17;;
8317;SDS011;4196;48.926;8.964;2024-03-07T15:25:54;24.07;;;13.77;;
8317;SDS011;4196;48.926;8.964;2024-03-07T15:28:41;24.83;;;13.13;;
8317;SDS011;4196;48.926;8.964;2024-03-07T15:31:28;25.03;;;12.50;;
8317;SDS011;4196;48.926;8.964;2024-03-07T15:34:15;27.47;;;12.13;;
8317;SDS011;4196;48.926;8.964;2024-03-07T15:37:02;25.80;;;12.90;;
8317;SDS011;4196;48.926;8.964;2024-03-07T15:39:49;23.77;;;13.10;;
8317;SDS011;4196;48.926;8.964;2024-03-07T15:42:44;23.77;;;12.63;;
8317;SDS011;4196;48.926;8.964;2024-03-07T15:45:31;21.50;;;11.50;;
8317;SDS011;4196;48.926;8.964;2024-03-07T15:48:18;27.47;;;12.80;;
8317;SDS011;4196;48.926;8.964;2024-03-07T15:51:09;25.40;;;13.33;;
8317;SDS011;4196;48.926;8.964;2024-03-07T15:53:57;21.20;;;12.27;;
8317;SDS011;4196;48.926;8.964;2024-03-07T15:56:44;25.27;;;13.33;;
8317;SDS011;4196;48.926;8.964;2024-03-07T15:59:30;26.27;;;11.50;;
8317;SDS011;4196;48.926;8.964;2024-03-07T16:02:19;24.03;;;12.50;;
8317;SDS011;4196;48.926;8.964;2024-03-07T16:05:07;21.97;;;11.70;;
8317;SDS011;4196;48.926;8.964;2024-03-07T16:07:56;26.20;;;12.17;;
8317;SDS011;4196;48.926;8.964;2024-03-07T16:10:44;22.17;;;10.70;;
8317;SDS011;4196;48.926;8.964;2024-03-07T16:13:32;23.40;;;11.87;;
8317;SDS011;4196;48.926;8.964;2024-03-07T16:16:18;26.60;;;10.90;;
8317;SDS011;4196;48.926;8.964;2024-03-07T16:19:06;24.37;;;13.13;;
8317;SDS011;4196;48.926;8.964;2024-03-07T16:21:56;22.00;;;11.10;;
8317;SDS011;4196;48.926;8.964;2024-03-07T16:24:46;24.40;;;11.60;;
8317;SDS011;4196;48.926;8.964;2024-03-07T16:27:32;24.10;;;12.73;;
8317;SDS011;4196;48.926;8.964;2024-03-07T16:30:20;21.20;;;10.50;;
8317;SDS011;4196;48.926;8.964;2024-03-07T16:33:07;21.63;;;10.03;;
8317;SDS011;4196;48.926;8.964;2024-03-07T16:35:54;21.63;;;10.63;;
8317;SDS011;4196;48.926;8.964;2024-03-07T16:38:41;20.40;;;9.87;;
8317;SDS011;4196;48.926;8.964;2024-03-07T16:41:27;20.20;;;10.40;;
8317;SDS011;4196;48.926;8.964;2024-03-07T16:44:14;22.63;;;11.13;;
8317;SDS011;4196;48.926;8.964;2024-03-07T16:47:01;20.93;;;9.40;;
8317;SDS011;4196;48.926;8.964;2024-03-07T16:49:48;19.07;;;10.57;;
8317;SDS011;4196;48.926;8.964;2024-03-07T16:52:35;22.30;;;11.50;;
8317;SDS011;4196;48.926;8.964;2024-03-07T16:55:23;16.20;;;8.97;;
8317;SDS011;4196;48.926;8.964;2024-03-07T16:58:10;18.40;;;8.90;;
8317;SDS011;4196;48.926;8.964;2024-03-07T17:00:59;17.90;;;8.70;;
8317;SDS011;4196;48.926;8.964;2024-03-07T17:03:46;17.47;;;9.60;;
8317;SDS011;4196;48.926;8.964;2024-03-07T17:06:32;21.83;;;9.97;;
8317;SDS011;4196;48.926;8.964;2024-03-07T17:09:21;18.00;;;9.70;;
8317;SDS011;4196;48.926;8.964;2024-03-07T17:12:08;16.60;;;9.77;;
8317;SDS011;4196;48.926;8.964;2024-03-07T17:14:54;17.30;;;8.70;;
8317;SDS011;4196;48.926;8.964;2024-03-07T17:17:42;20.60;;;10.20;;
8317;SDS011;4196;48.926;8.964;2024-03-07T17:20:32;20.47;;;9.70;;